createdAt,value
2023-05-01T00:02:19.663Z,50.35
2023-05-01T00:05:10.828Z,50.53
2023-05-01T00:08:00.337Z,50.38
2023-05-01T00:10:48.611Z,50.46
2023-05-01T00:13:38.153Z,50.48
2023-05-01T00:16:27.125Z,50.61
2023-05-01T00:19:18.015Z,50.51
2023-05-01T00:22:07.402Z,50.67
2023-05-01T00:24:49.779Z,50.79
2023-05-01T00:27:38.919Z,50.89
2023-05-01T00:30:28.383Z,50.89
2023-05-01T00:33:20.634Z,50.91
2023-05-01T00:36:10.067Z,50.93
2023-05-01T00:39:00.961Z,51.03
2023-05-01T00:41:50.265Z,50.94
2023-05-01T00:44:39.430Z,50.93
2023-05-01T00:47:28.518Z,51.15
2023-05-01T00:50:19.265Z,51.15
2023-05-01T00:53:08.163Z,51.18
2023-05-01T00:55:58.172Z,51.23
2023-05-01T00:58:52.753Z,51.35
2023-05-01T01:01:42.169Z,51.38
2023-05-01T01:04:32.967Z,51.28
2023-05-01T01:07:33.378Z,51.43
2023-05-01T01:10:35.279Z,51.47
2023-05-01T01:13:32.352Z,51.55
2023-05-01T01:16:45.346Z,51.63
2023-05-01T01:20:10.405Z,51.75
2023-05-01T01:23:27.025Z,51.84
2023-05-01T01:26:31.598Z,51.95
2023-05-01T01:29:44.368Z,52.06
2023-05-01T01:33:04.128Z,52.24
2023-05-01T01:35:57.720Z,52.34
2023-05-01T01:38:54.220Z,52.35
2023-05-01T01:41:49.990Z,51.93
2023-05-01T01:44:42.119Z,51.86
2023-05-01T01:47:33.803Z,52.01
2023-05-01T01:50:26.764Z,52.09
2023-05-01T01:53:18.520Z,52.01
2023-05-01T01:56:09.503Z,51.97
2023-05-01T01:59:01.224Z,51.91
2023-05-01T02:01:34.995Z,51.99
2023-05-01T02:04:27.992Z,52.16
2023-05-01T02:07:19.712Z,52.35
2023-05-01T02:10:13.398Z,52.39
2023-05-01T02:13:03.199Z,52.44
2023-05-01T02:15:55.536Z,52.42
2023-05-01T02:18:47.273Z,52.77
2023-05-01T02:21:31.476Z,52.81
2023-05-01T02:24:23.489Z,53.12
2023-05-01T02:27:16.596Z,53.18
2023-05-01T02:30:09.581Z,53.16
2023-05-01T02:32:58.748Z,52.98
2023-05-01T02:35:48.997Z,53.01
2023-05-01T02:38:38.209Z,53.14
2023-05-01T02:41:28.158Z,53.14
2023-05-01T02:44:19.006Z,53.18
2023-05-01T02:47:12.419Z,53.38
2023-05-01T02:50:03.069Z,53.39
2023-05-01T02:52:54.184Z,53.16
2023-05-01T02:55:42.122Z,53.18
2023-05-01T02:58:32.717Z,53.24
2023-05-01T03:01:22.434Z,53.26
2023-05-01T03:04:11.442Z,53.32
2023-05-01T03:06:59.770Z,53.32
2023-05-01T03:09:48.680Z,53.45
2023-05-01T03:12:37.649Z,53.47
2023-05-01T03:15:26.984Z,53.54
2023-05-01T03:18:16.142Z,53.61
2023-05-01T03:21:05.606Z,53.71
2023-05-01T03:23:54.934Z,53.97
2023-05-01T03:26:43.109Z,54.13
2023-05-01T03:29:33.513Z,54.21
2023-05-01T03:32:23.083Z,54.51
2023-05-01T03:35:12.403Z,54.66
2023-05-01T03:38:01.858Z,54.59
2023-05-01T03:40:57.233Z,54.26
2023-05-01T03:43:44.786Z,54.45
2023-05-01T03:46:34.004Z,54.44
2023-05-01T03:49:23.095Z,54.63
2023-05-01T03:52:12.014Z,54.56
2023-05-01T03:55:01.547Z,54.45
2023-05-01T03:58:00.136Z,54.43
2023-05-01T04:00:50.709Z,54.48
2023-05-01T04:03:40.299Z,54.49
2023-05-01T04:06:30.259Z,54.85
2023-05-01T04:09:19.343Z,55.20
2023-05-01T04:12:07.699Z,55.78
2023-05-01T04:14:57.063Z,57.06
2023-05-01T04:17:48.019Z,57.11
2023-05-01T04:20:36.880Z,57.43
2023-05-01T04:23:25.861Z,57.58
2023-05-01T04:26:15.833Z,57.50
2023-05-01T04:29:05.233Z,57.36
2023-05-01T04:31:54.298Z,56.63
2023-05-01T04:34:43.842Z,56.07
2023-05-01T04:37:36.251Z,56.19
2023-05-01T04:40:28.290Z,55.71
2023-05-01T04:43:17.044Z,55.24
2023-05-01T04:46:06.472Z,55.19
2023-05-01T04:48:55.450Z,54.71
2023-05-01T04:51:45.371Z,54.70
2023-05-01T04:54:34.471Z,53.72
2023-05-01T04:57:24.013Z,53.41
2023-05-01T05:00:15.638Z,51.99
2023-05-01T05:03:05.003Z,51.24
2023-05-01T05:05:56.674Z,51.24
2023-05-01T05:08:46.132Z,49.93
2023-05-01T05:11:38.659Z,49.56
2023-05-01T05:14:28.161Z,49.10
2023-05-01T05:17:17.098Z,48.64
2023-05-01T05:20:09.549Z,49.17
2023-05-01T05:22:58.378Z,48.80
2023-05-01T05:25:47.438Z,48.64
2023-05-01T05:28:36.962Z,48.41
2023-05-01T05:31:29.619Z,47.96
2023-05-01T05:34:19.498Z,47.29
2023-05-01T05:37:08.615Z,46.84
2023-05-01T05:39:58.053Z,45.76
2023-05-01T05:42:48.225Z,45.75
2023-05-01T05:45:37.393Z,45.63
2023-05-01T05:48:29.018Z,45.19
2023-05-01T05:50:58.777Z,44.87
2023-05-01T05:53:47.874Z,44.88
2023-05-01T05:56:37.224Z,45.03
2023-05-01T05:59:26.927Z,45.59
2023-05-01T06:02:15.824Z,45.65
2023-05-01T06:05:06.121Z,45.10
2023-05-01T06:07:55.491Z,44.74
2023-05-01T06:10:45.811Z,44.79
2023-05-01T06:13:35.381Z,44.83
2023-05-01T06:16:26.019Z,45.00
2023-05-01T06:19:15.436Z,45.33
2023-05-01T06:22:06.619Z,45.16
2023-05-01T06:24:56.189Z,45.21
2023-05-01T06:27:46.246Z,45.38
2023-05-01T06:30:56.323Z,45.40
2023-05-01T06:33:45.878Z,45.64
2023-05-01T06:36:41.324Z,45.73
2023-05-01T06:39:29.155Z,45.94
2023-05-01T06:42:18.181Z,46.25
2023-05-01T06:45:07.764Z,47.02
2023-05-01T06:47:56.811Z,47.33
2023-05-01T06:50:46.024Z,46.95
2023-05-01T06:53:34.342Z,46.43
2023-05-01T06:56:23.461Z,45.71
2023-05-01T06:59:14.097Z,45.53
2023-05-01T07:02:03.352Z,45.74
2023-05-01T07:04:54.588Z,45.71
2023-05-01T07:07:50.513Z,45.59
2023-05-01T07:10:49.019Z,45.42
2023-05-01T07:13:38.274Z,45.41
2023-05-01T07:16:27.708Z,45.38
2023-05-01T07:19:17.267Z,45.11
2023-05-01T07:22:07.394Z,45.19
2023-05-01T07:24:56.894Z,45.46
2023-05-01T07:27:46.033Z,45.64
2023-05-01T07:30:30.668Z,45.27
2023-05-01T07:33:20.250Z,45.06
2023-05-01T07:36:09.855Z,45.04
2023-05-01T07:38:58.949Z,45.08
2023-05-01T07:41:48.487Z,44.98
2023-05-01T07:44:38.570Z,44.90
2023-05-01T07:47:29.582Z,45.08
2023-05-01T07:50:18.888Z,44.98
2023-05-01T07:53:08.884Z,45.14
2023-05-01T07:56:08.178Z,44.99
2023-05-01T07:58:57.552Z,45.14
2023-05-01T08:01:47.365Z,44.80
2023-05-01T08:04:37.128Z,44.94
2023-05-01T08:07:18.742Z,45.01
2023-05-01T08:10:09.825Z,44.97
2023-05-01T08:12:58.864Z,44.90
2023-05-01T08:15:48.872Z,45.02
2023-05-01T08:18:38.691Z,45.01
2023-05-01T08:21:29.120Z,44.79
2023-05-01T08:24:18.224Z,44.78
2023-05-01T08:27:08.808Z,44.92
2023-05-01T08:29:57.915Z,44.98
2023-05-01T08:32:48.204Z,44.83
2023-05-01T08:35:37.401Z,45.02
2023-05-01T08:38:29.026Z,45.21
2023-05-01T08:41:21.863Z,45.06
2023-05-01T08:44:15.909Z,45.21
2023-05-01T08:47:12.387Z,45.18
2023-05-01T08:50:03.437Z,45.20
2023-05-01T08:52:54.137Z,45.35
2023-05-01T08:55:46.773Z,45.22
2023-05-01T08:58:36.908Z,44.94
2023-05-01T09:01:29.140Z,44.83
2023-05-01T09:04:18.653Z,45.03
2023-05-01T09:07:09.160Z,44.91
2023-05-01T09:09:59.314Z,44.90
2023-05-01T09:12:54.343Z,44.96
2023-05-01T09:15:33.509Z,44.66
2023-05-01T09:18:23.608Z,44.15
2023-05-01T09:21:12.636Z,44.21
2023-05-01T09:24:02.967Z,43.93
2023-05-01T09:26:53.884Z,43.93
2023-05-01T09:29:45.009Z,43.74
2023-05-01T09:32:27.656Z,43.61
2023-05-01T09:35:17.698Z,43.31
2023-05-01T09:38:07.392Z,43.08
2023-05-01T09:41:04.922Z,42.94
2023-05-01T09:43:55.978Z,43.00
2023-05-01T09:46:45.593Z,42.74
2023-05-01T09:49:54.108Z,42.67
2023-05-01T09:52:52.080Z,42.49
2023-05-01T09:55:41.380Z,42.13
2023-05-01T09:58:31.751Z,42.18
2023-05-01T10:01:40.116Z,41.99
2023-05-01T10:04:33.334Z,41.94
2023-05-01T10:07:22.850Z,41.73
2023-05-01T10:10:19.514Z,41.19
2023-05-01T10:13:15.053Z,41.13
2023-05-01T10:16:06.942Z,40.92
2023-05-01T10:18:59.497Z,41.10
2023-05-01T10:21:48.973Z,40.85
2023-05-01T10:24:39.625Z,40.82
2023-05-01T10:27:30.211Z,40.61
2023-05-01T10:30:21.959Z,40.14
2023-05-01T10:33:13.873Z,40.42
2023-05-01T10:36:06.291Z,40.30
2023-05-01T10:38:48.995Z,40.12
2023-05-01T10:42:06.072Z,39.79
2023-05-01T10:45:29.741Z,39.81
2023-05-01T10:48:56.627Z,39.71
2023-05-01T10:52:03.490Z,39.42
2023-05-01T10:54:54.797Z,39.33
2023-05-01T10:57:45.631Z,39.37
2023-05-01T11:00:34.982Z,39.08
2023-05-01T11:03:39.613Z,39.22
2023-05-01T11:06:30.657Z,38.95
2023-05-01T11:09:40.447Z,38.71
2023-05-01T11:12:51.629Z,38.66
2023-05-01T11:15:41.432Z,38.56
2023-05-01T11:18:48.730Z,38.43
2023-05-01T11:21:41.326Z,38.38
2023-05-01T11:24:33.622Z,38.29
2023-05-01T11:27:24.233Z,38.26
2023-05-01T11:30:14.286Z,38.03
2023-05-01T11:33:05.519Z,38.00
2023-05-01T11:36:04.455Z,38.12
2023-05-01T11:38:56.346Z,37.94
2023-05-01T11:41:46.749Z,37.89
2023-05-01T11:44:37.241Z,37.70
2023-05-01T11:47:31.758Z,37.49
2023-05-01T11:50:21.459Z,37.48
2023-05-01T11:53:15.126Z,37.24
2023-05-01T11:56:26.043Z,37.14
2023-05-01T11:59:17.396Z,36.79
2023-05-01T12:02:19.475Z,36.81
2023-05-01T12:05:17.664Z,36.77
2023-05-01T12:08:18.277Z,36.62
2023-05-01T12:11:00.826Z,36.70
2023-05-01T12:13:51.173Z,36.53
2023-05-01T12:16:41.814Z,36.49
2023-05-01T12:19:31.734Z,36.28
2023-05-01T12:22:21.906Z,36.24
2023-05-01T12:25:12.339Z,36.11
2023-05-01T12:28:05.184Z,36.09
2023-05-01T12:31:05.398Z,36.19
2023-05-01T12:33:56.882Z,35.86
2023-05-01T12:36:53.967Z,35.79
2023-05-01T12:39:45.153Z,35.69
2023-05-01T12:42:34.136Z,35.73
2023-05-01T12:45:23.228Z,35.81
2023-05-01T12:48:14.377Z,35.67
2023-05-01T12:51:03.723Z,35.28
2023-05-01T12:53:57.125Z,35.38
2023-05-01T12:56:46.533Z,35.52
2023-05-01T12:59:37.318Z,35.46
2023-05-01T13:02:31.724Z,35.53
2023-05-01T13:05:20.883Z,35.47
2023-05-01T13:08:10.840Z,35.47
2023-05-01T13:11:03.386Z,35.43
2023-05-01T13:13:52.437Z,35.24
2023-05-01T13:16:46.421Z,35.20
2023-05-01T13:19:36.280Z,35.10
2023-05-01T13:22:33.815Z,34.88
2023-05-01T13:25:23.028Z,34.93
2023-05-01T13:28:20.586Z,35.11
2023-05-01T13:31:13.755Z,34.97
2023-05-01T13:34:05.292Z,35.02
2023-05-01T13:36:56.226Z,34.95
2023-05-01T13:39:46.554Z,34.88
2023-05-01T13:42:22.639Z,35.00
2023-05-01T13:45:13.142Z,34.96
2023-05-01T13:48:04.702Z,34.73
2023-05-01T13:50:55.026Z,34.94
2023-05-01T13:53:44.006Z,34.88
2023-05-01T13:56:35.448Z,34.89
2023-05-01T13:59:43.522Z,34.86
2023-05-01T14:02:32.789Z,34.87
2023-05-01T14:05:27.674Z,34.90
2023-05-01T14:08:20.593Z,34.94
2023-05-01T14:11:09.596Z,34.94
2023-05-01T14:14:03.633Z,34.89
2023-05-01T14:16:52.606Z,34.88
2023-05-01T14:19:41.884Z,34.87
2023-05-01T14:22:34.680Z,34.72
2023-05-01T14:25:24.600Z,34.84
2023-05-01T14:28:14.959Z,34.70
2023-05-01T14:31:04.416Z,34.75
2023-05-01T14:33:57.509Z,34.62
2023-05-01T14:36:46.778Z,34.77
2023-05-01T14:39:37.633Z,34.73
2023-05-01T14:42:29.623Z,34.76
2023-05-01T14:45:18.959Z,34.86
2023-05-01T14:48:10.439Z,34.74
2023-05-01T14:51:00.035Z,34.64
2023-05-01T14:53:51.280Z,34.68
2023-05-01T14:56:42.098Z,34.62
2023-05-01T14:59:31.392Z,34.57
2023-05-01T15:02:20.866Z,34.56
2023-05-01T15:05:10.586Z,34.54
2023-05-01T15:08:00.271Z,34.53
2023-05-01T15:10:49.486Z,34.46
2023-05-01T15:13:40.906Z,34.64
2023-05-01T15:16:33.931Z,34.57
2023-05-01T15:19:23.088Z,34.47
2023-05-01T15:22:12.567Z,34.60
2023-05-01T15:25:01.830Z,34.45
2023-05-01T15:27:51.656Z,34.45
2023-05-01T15:30:45.788Z,34.61
2023-05-01T15:33:35.124Z,34.59
2023-05-01T15:36:24.320Z,34.38
2023-05-01T15:39:15.492Z,34.52
2023-05-01T15:42:04.731Z,34.57
2023-05-01T15:44:55.111Z,34.61
2023-05-01T15:47:44.926Z,34.73
2023-05-01T15:50:34.180Z,34.76
2023-05-01T15:53:23.842Z,34.67
2023-05-01T15:56:13.176Z,34.76
2023-05-01T15:59:03.931Z,34.78
2023-05-01T16:01:55.810Z,34.92
2023-05-01T16:04:47.668Z,34.81
2023-05-01T16:07:35.868Z,34.87
2023-05-01T16:10:19.744Z,34.96
2023-05-01T16:13:09.892Z,34.91
2023-05-01T16:15:59.422Z,34.88
2023-05-01T16:18:54.818Z,34.76
2023-05-01T16:21:43.814Z,34.87
2023-05-01T16:24:33.881Z,34.74
2023-05-01T16:27:22.979Z,34.77
2023-05-01T16:30:14.949Z,34.53
2023-05-01T16:33:05.477Z,34.70
2023-05-01T16:35:59.712Z,34.63
2023-05-01T16:38:48.777Z,34.57
2023-05-01T16:41:45.070Z,34.56
2023-05-01T16:44:36.378Z,34.41
2023-05-01T16:47:15.973Z,34.53
2023-05-01T16:50:00.844Z,34.47
2023-05-01T16:52:51.988Z,34.55
2023-05-01T16:55:42.895Z,34.68
2023-05-01T16:58:32.376Z,34.47
2023-05-01T17:01:21.995Z,34.53
2023-05-01T17:04:14.410Z,34.73
2023-05-01T17:07:03.461Z,34.62
2023-05-01T17:09:52.977Z,34.50
2023-05-01T17:12:42.167Z,34.51
2023-05-01T17:15:25.023Z,34.75
2023-05-01T17:18:12.964Z,34.86
2023-05-01T17:21:02.705Z,34.58
2023-05-01T17:23:54.185Z,34.96
2023-05-01T17:26:43.663Z,34.78
2023-05-01T17:29:33.038Z,34.71
2023-05-01T17:32:25.822Z,34.72
2023-05-01T17:35:22.822Z,35.03
2023-05-01T17:38:12.094Z,35.15
2023-05-01T17:41:01.316Z,34.80
2023-05-01T17:43:50.614Z,35.17
2023-05-01T17:46:40.560Z,35.01
2023-05-01T17:49:30.382Z,35.35
2023-05-01T17:52:19.640Z,35.47
2023-05-01T17:55:11.359Z,35.41
2023-05-01T17:57:55.218Z,35.35
2023-05-01T18:00:44.112Z,35.43
2023-05-01T18:03:33.820Z,35.72
2023-05-01T18:06:23.900Z,35.66
2023-05-01T18:09:13.351Z,35.88
2023-05-01T18:12:03.508Z,35.92
2023-05-01T18:14:53.490Z,35.93
2023-05-01T18:17:42.638Z,35.97
2023-05-01T18:20:31.774Z,36.09
2023-05-01T18:23:21.253Z,36.12
2023-05-01T18:26:10.588Z,36.12
2023-05-01T18:29:00.260Z,36.24
2023-05-01T18:31:50.630Z,36.46
2023-05-01T18:34:42.207Z,36.53
2023-05-01T18:37:31.477Z,36.50
2023-05-01T18:40:21.115Z,36.62
2023-05-01T18:43:11.723Z,36.72
2023-05-01T18:46:01.242Z,36.77
2023-05-01T18:48:50.944Z,36.81
2023-05-01T18:51:41.316Z,36.94
2023-05-01T18:54:31.196Z,37.07
2023-05-01T18:57:22.303Z,37.05
2023-05-01T19:00:15.566Z,37.08
2023-05-01T19:03:05.206Z,37.24
2023-05-01T19:05:57.337Z,37.18
2023-05-01T19:08:47.222Z,37.36
2023-05-01T19:11:37.160Z,37.42
2023-05-01T19:14:26.682Z,37.47
2023-05-01T19:17:16.293Z,37.56
2023-05-01T19:20:08.146Z,37.61
2023-05-01T19:22:57.905Z,37.69
2023-05-01T19:25:47.681Z,37.72
2023-05-01T19:28:38.538Z,37.79
2023-05-01T19:31:28.321Z,37.92
2023-05-01T19:34:18.480Z,37.93
2023-05-01T19:37:08.078Z,38.08
2023-05-01T19:40:01.658Z,38.07
2023-05-01T19:42:52.157Z,38.19
2023-05-01T19:45:35.761Z,38.27
2023-05-01T19:48:25.334Z,38.40
2023-05-01T19:51:14.814Z,38.52
2023-05-01T19:54:05.067Z,38.47
2023-05-01T19:56:55.490Z,38.58
2023-05-01T19:59:46.093Z,38.69
2023-05-01T20:02:35.429Z,38.71
2023-05-01T20:05:27.720Z,38.66
2023-05-01T20:08:16.251Z,38.79
2023-05-01T20:11:07.028Z,38.94
2023-05-01T20:13:59.105Z,38.89
2023-05-01T20:16:42.461Z,39.02
2023-05-01T20:19:31.811Z,39.13
2023-05-01T20:22:21.599Z,39.24
2023-05-01T20:25:11.736Z,39.25
2023-05-01T20:28:02.856Z,39.26
2023-05-01T20:30:56.562Z,39.39
2023-05-01T20:33:46.832Z,39.40
2023-05-01T20:36:37.224Z,39.46
2023-05-01T20:39:38.099Z,39.48
2023-05-01T20:42:20.869Z,39.49
2023-05-01T20:45:11.214Z,39.59
2023-05-01T20:48:01.848Z,39.82
2023-05-01T20:50:54.166Z,39.84
2023-05-01T20:53:43.277Z,39.82
2023-05-01T20:56:34.031Z,40.03
2023-05-01T20:59:21.610Z,40.07
2023-05-01T21:02:11.692Z,40.20
2023-05-01T21:05:01.618Z,40.18
2023-05-01T21:07:53.544Z,40.32
2023-05-01T21:10:32.563Z,40.26
2023-05-01T21:13:24.314Z,40.32
2023-05-01T21:16:16.434Z,40.25
2023-05-01T21:19:06.441Z,40.39
2023-05-01T21:21:56.392Z,40.32
2023-05-01T21:24:44.827Z,40.41
2023-05-01T21:27:41.166Z,40.44
2023-05-01T21:30:33.020Z,40.44
2023-05-01T21:33:33.669Z,40.65
2023-05-01T21:36:23.514Z,40.93
2023-05-01T21:39:13.205Z,40.96
2023-05-01T21:42:04.720Z,41.03
2023-05-01T21:44:55.007Z,41.16
2023-05-01T21:47:47.032Z,41.23
2023-05-01T21:50:38.135Z,41.52
2023-05-01T21:53:29.474Z,41.49
2023-05-01T21:56:22.317Z,41.55
2023-05-01T21:59:13.006Z,41.51
2023-05-01T22:02:09.670Z,41.61
2023-05-01T22:04:58.942Z,41.58
2023-05-01T22:07:48.706Z,41.88
2023-05-01T22:10:40.250Z,41.86
2023-05-01T22:13:32.922Z,41.89
2023-05-01T22:16:15.423Z,42.05
2023-05-01T22:19:05.935Z,42.18
2023-05-01T22:21:56.381Z,42.12
2023-05-01T22:24:45.593Z,42.21
2023-05-01T22:27:38.255Z,42.29
2023-05-01T22:30:29.073Z,42.28
2023-05-01T22:33:18.665Z,42.33
2023-05-01T22:36:08.074Z,42.47
2023-05-01T22:38:58.374Z,42.56
2023-05-01T22:41:48.363Z,42.66
2023-05-01T22:44:37.544Z,42.70
2023-05-01T22:47:36.893Z,42.76
2023-05-01T22:50:28.691Z,42.77
2023-05-01T22:53:17.764Z,42.77
2023-05-01T22:56:10.956Z,42.74
2023-05-01T22:59:00.279Z,42.89
2023-05-01T23:01:49.656Z,43.00
2023-05-01T23:04:39.272Z,43.01
2023-05-01T23:07:31.371Z,43.01
2023-05-01T23:10:24.017Z,43.13
2023-05-01T23:13:18.878Z,43.15
2023-05-01T23:16:08.489Z,43.19
2023-05-01T23:18:58.338Z,43.14
2023-05-01T23:21:51.014Z,43.24
2023-05-01T23:24:43.556Z,43.22
2023-05-01T23:27:14.152Z,43.47
2023-05-01T23:30:07.240Z,43.43
2023-05-01T23:32:58.676Z,43.55
2023-05-01T23:35:48.658Z,43.53
2023-05-01T23:38:38.034Z,43.65
2023-05-01T23:41:30.314Z,43.68
2023-05-01T23:44:12.071Z,43.69
2023-05-01T23:47:01.236Z,43.83
2023-05-01T23:49:50.820Z,43.81
2023-05-01T23:52:40.647Z,43.98
2023-05-01T23:55:31.180Z,43.99
2023-05-01T23:58:20.923Z,43.98
